Calumet Park, Illinois
Current Conditions -  °F | °C
As of 1:15 PM on Tuesday 21 Oct 2014 (Local Time) from KIGQ Reporting Station
Heavy Rain Heavy Rain  
Wind Chill: 43°   Ceiling: 1200
Heat Index: 49°   Visibility: 10mi
Dew Point: 46°   Wind: 14mph
Humidity: 92%   Direction: 350°N
Pressure: 30.17"   Gusts: 21mph
Location:  41.6438°N, 87.6214°W
Report Text: KIGQ 211815Z AUTO 35012G18KT 10SM +RA BKN012 OVC021 09/08 A3017 RMK AO2 T00930080
Loading
Personal Weather Stations






























Interactive Weather Map
Tropical Storm Tracking
New forecast layout! Learn more

10-Day Weather Forecast

Advertisements
Track Severe Weather on mobile